Terminal Aerodrome Forecast
Issued by NWS St Louis, MO

Home | Current Version | Previous Version | Text Only | Print | Product List | Glossary On
Versions: 1 2 3 4 5 6 7 8 9 10 11 12 13 14 15 16 17 18 19 20 21 22 23
000
FTUS43 KLSX 151600 AAA
TAFCOU
TAF AMD
KCOU 151635Z 1517/1612 23009KT P6SM SCT025 BKN040
     FM151800 27010KT P6SM VCTS SCT015 BKN035CB
      TEMPO 1518/1519 2SM TSRA BKN020CB
     FM152000 32010KT P6SM VCSH SCT012 OVC020
     FM160200 36008KT P6SM SCT030=

USA.gov is the U.S. government's official web portal to all federal, state and local government web resources and services.